METAR & TAF Report
Available data for CYAM from the past 6 hours
SAULT STE MARIE, ON
Metar
CYAM 232234Z 32011G22KT 15SM -SHRA FEW015 SCT028 BKN042 04/00 A3025 RMK CU1CU3CU4 CU TR SLP252

22:34 UTC

Wind: 320° 11kt

Visibility: 15 SM

Sky: FEW 1500 ft

Temp: 4 deg C / 39.2 deg F

Dewpoint: 0 deg C / 32 deg F

Pressure: 30.25 inHg

TAF
TAF CYAM 231938Z 2320/2408 33015G25KT P6SM SCT020 BKN030 TEMPO 2320/2403 5SM -SHRA BR BKN020 OVC030 BECMG 2322/2324 32012G22KT FM240300 35012KT P6SM BKN025 TEMPO 2403/2406 BKN020 FM240600 36012KT P6SM SCT020 RMK NXT FCST BY 240200Z
NOTAM

Click here for NOTAMs.